MDT,Max TemperatureF,Mean TemperatureF,Min TemperatureF,Max Dew PointF,MeanDew PointF,Min DewpointF,Max Humidity, Mean Humidity, Min Humidity, Max Sea Level PressureIn, Mean Sea Level PressureIn, Min Sea Level PressureIn, Max VisibilityMiles, Mean VisibilityMiles, Min VisibilityMiles, Max Wind SpeedMPH, Mean Wind SpeedMPH, Max Gust SpeedMPH,PrecipitationIn, CloudCover, Events, WindDirDegrees
2010-10-1,86,64,43,42,38,34,80,46,17,30.17,30.08,30.02,10,10,10,14,4,18,0.00,0,,7
2010-10-2,84,62,39,38,33,27,73,40,14,30.19,30.08,29.99,10,10,10,13,6,,0.00,0,,113
2010-10-3,79,61,43,49,41,32,80,52,27,30.28,30.10,29.99,10,10,4,21,6,30,0.09,2,Rain-Thunderstorm,150
2010-10-4,75,62,50,50,46,39,89,67,28,30.27,30.08,29.95,10,10,6,13,7,25,0.10,3,Rain-Thunderstorm,73
2010-10-5,73,60,48,52,48,42,93,74,36,30.16,30.08,30.01,10,10,10,13,5,17,0.07,5,Rain,149
2010-10-6,73,60,50,51,48,43,94,69,38,30.36,30.16,30.00,10,10,6,24,7,32,0.18,4,Rain-Thunderstorm,104
2010-10-7,78,63,51,47,43,35,83,52,28,30.29,30.08,29.93,10,10,10,25,7,38,0.00,4,Rain-Thunderstorm,182
2010-10-8,64,50,37,37,33,28,86,55,27,30.21,30.12,30.00,10,10,10,15,6,18,0.00,0,,11
2010-10-9,66,47,30,34,32,28,89,58,30,30.28,30.20,30.15,10,10,10,17,7,24,0.00,0,,13
2010-10-10,72,54,37,35,33,31,76,47,25,30.17,30.04,29.92,10,10,10,18,8,28,0.00,0,,2
2010-10-11,72,52,33,36,32,26,85,54,19,30.08,30.02,29.96,10,10,10,16,7,23,0.00,0,,50
2010-10-12,73,52,33,38,33,28,85,53,25,30.26,30.16,30.06,10,10,10,13,5,18,0.00,0,,89
2010-10-13,72,52,32,38,31,19,88,53,14,30.39,30.31,30.25,10,10,10,8,5,,0.00,0,,86
2010-10-14,73,52,30,32,29,25,85,49,17,30.44,30.31,30.23,10,10,10,14,5,,0.00,0,,25
2010-10-15,73,52,32,34,29,25,75,49,20,30.28,30.17,30.07,10,10,10,16,6,24,0.00,0,,69
2010-10-16,73,53,33,33,30,27,79,48,20,30.18,30.10,30.03,10,10,10,13,6,,0.00,0,,107
2010-10-17,75,52,32,33,30,26,79,48,21,30.16,30.05,29.96,10,10,10,10,4,,0.00,1,,95
2010-10-18,66,52,39,42,39,33,83,61,41,30.04,29.98,29.93,10,10,10,13,7,18,0.01,4,Rain,36
2010-10-19,69,50,32,41,33,29,89,63,27,30.14,30.06,30.00,10,10,10,8,4,,0.00,0,,69
2010-10-20,75,54,32,47,37,28,100,66,20,30.27,30.08,29.91,10,8,2,15,4,23,0.51,3,Rain-Thunderstorm,165
2010-10-21,57,46,37,46,43,36,100,82,64,30.03,29.94,29.85,10,10,10,13,6,,0.02,3,,286
2010-10-22,55,48,43,46,44,41,97,91,77,30.01,29.91,29.81,10,9,2,15,4,24,0.20,8,Rain,254
2010-10-23,57,50,43,45,43,41,100,86,59,30.06,29.95,29.85,10,9,2,13,4,18,0.17,7,Rain,274
2010-10-24,57,46,36,44,41,35,100,82,55,30.14,29.99,29.82,10,10,6,7,3,,0.00,2,,55
2010-10-25,52,40,28,44,34,19,96,76,37,29.92,29.70,29.56,10,8,2,26,10,38,0.16,6,Rain,326
2010-10-26,48,34,21,27,22,19,89,63,34,29.93,29.89,29.83,10,10,10,16,4,21,0.00,2,,2
2010-10-27,48,36,23,26,19,9,88,59,21,30.51,30.24,29.93,10,10,10,14,4,24,0.00,1,,25
2010-10-28,63,40,19,25,20,15,88,56,17,30.61,30.48,30.38,10,10,9,9,4,21,0.00,0,,98
2010-10-29,69,48,27,34,28,23,85,58,26,30.40,30.27,30.13,10,10,10,9,4,,0.00,0,,107
2010-10-30,72,50,30,36,29,22,89,50,19,30.13,29.99,29.81,10,10,10,23,6,34,0.00,1,,192
2010-10-31,57,42,28,30,27,25,88,60,32,30.23,30.11,29.99,10,10,10,10,5,18,0.00,0,,39